Flight Track Log - Related Links

Times and Time Zones

All times are in EDT time to prevent confusion due to time zone crossing. See the ASQ5269 flight status page for this flight to view local times or setup timezone preferences in your user account.

Time Position Orientation Groundspeed Altitude Reporting Facility
EDT Latitude Longitude Course Direction KTS MPH feet Rate Location/Type
Tue 04:01:00 PM 41.3688 -84.0241 214° Southwest  Level FlightAware Approximate
Tue 04:01:13 PM 42.1967 -83.3756 211° Southwest 160 184 1,500  Level Cleveland Center
Tue 04:02:00 PM 41.2877 -84.0961 214° Southwest  Level FlightAware Approximate
Tue 04:02:13 PM 42.1475 -83.4208 214° Southwest 229 264 3,000  Level Cleveland Center
Tue 04:03:00 PM 41.2287 -84.1696 253° West  Level FlightAware Approximate
Tue 04:03:17 PM 42.0975 -83.4672 215° Southwest 230 265 5,100  Level Cleveland Center
Tue 04:04:00 PM 41.1994 -84.2931 253° West  Level FlightAware Approximate
Tue 04:04:19 PM 42.0369 -83.5167 211° Southwest 243 280 7,500  Level Cleveland Center
Tue 04:05:00 PM 41.1700 -84.4164 252° West  Level FlightAware Approximate
Tue 04:05:21 PM 41.9711 -83.5661 209° Southwest 260 299 9,800  Level Cleveland Center
Tue 04:06:00 PM 41.1401 -84.5395 252° West  Level FlightAware Approximate
Tue 04:06:23 PM 41.8872 -83.6314 210° Southwest 288 331 11,100  Level Cleveland Center
Tue 04:07:24 PM 41.8056 -83.6953 210° Southwest 337 388 11,900 1,024 Climbing Cleveland Center
Tue 04:08:26 PM 41.7203 -83.7619 210° Southwest 351 404 13,200 1,306 Climbing Cleveland Center
Tue 04:09:28 PM 41.6331 -83.8292 210° Southwest 358 412 14,600 1,500 Climbing Cleveland Center
Tue 04:10:30 PM 41.5478 -83.8983 211° Southwest 359 413 16,300 1,597 Climbing Cleveland Center
Tue 04:11:32 PM 41.4628 -83.9647 210° Southwest 358 412 17,900 1,645 Climbing Cleveland Center
Tue 04:12:34 PM 41.3611 -84.0444 210° Southwest 357 411 19,700 1,500 Climbing Cleveland Center
Tue 04:13:36 PM 41.2783 -84.1100 211° Southwest 353 406 21,000 1,161 Climbing Cleveland Center
Tue 04:14:38 PM 41.1919 -84.1747 209° Southwest 350 403 22,100 1,065 Climbing Cleveland Center
Tue 04:15:40 PM 41.1169 -84.2572 220° Southwest 358 412 23,200 1,016 Climbing Cleveland Center
Tue 04:16:42 PM 41.0972 -84.3803 258° West 348 400 24,200 1,016 Climbing Cleveland Center
Tue 04:17:44 PM 41.0794 -84.5075 260° West 348 400 25,300 774 Climbing Cleveland Center
Tue 04:18:46 PM 41.0608 -84.6336 259° West 348 400 25,800 396 Climbing Cleveland Center
Tue 04:19:30 PM 41.0447 -84.7375 258° West 356 410 26,000 113 Climbing Chicago Center
Tue 04:20:32 PM 40.9781 -84.8436 230° Southwest 374 430 26,000  Level Chicago Center
Tue 04:21:34 PM 40.9044 -84.9425 225° Southwest 374 430 26,000  Level Chicago Center
Tue 04:22:36 PM 40.8136 -85.0639 225° Southwest 380 437 26,000  Level Chicago Center
Tue 04:23:38 PM 40.7372 -85.1647 225° Southwest 383 441 26,000  Level Chicago Center
Tue 04:24:41 PM 40.6706 -85.2747 231° Southwest 385 443 26,000  Level Chicago Center
Tue 04:25:43 PM 40.6628 -85.4017 265° West 382 440 26,000  Level Chicago Center
Tue 04:26:45 PM 40.6564 -85.5658 267° West 376 433 26,000  Level Chicago Center
Tue 04:27:47 PM 40.6586 -85.7008 271° West 375 432 26,000  Level Chicago Center
Tue 04:28:49 PM 40.6731 -85.8356 278° West 374 430 26,000  Level Chicago Center
Tue 04:29:51 PM 40.7025 -85.9806 285° West 375 432 26,000  Level Chicago Center
Tue 04:30:53 PM 40.7369 -86.1103 289° West 375 432 26,000  Level Chicago Center
Tue 04:31:56 PM 40.7922 -86.2289 302° West 378 435 26,000  Level Chicago Center
Tue 04:32:58 PM 40.8381 -86.3531 296° West 377 434 26,000  Level Chicago Center
Tue 04:34:00 PM 40.8661 -86.4836 286° West 372 428 26,000  Level Chicago Center
Tue 04:35:02 PM 40.8467 -86.6458 261° West 373 429 26,000  Level Chicago Center
Tue 04:36:04 PM 40.8272 -86.7736 259° West 372 428 26,000 -144 Level Chicago Center
Tue 04:37:07 PM 40.8072 -86.9106 259° West 375 432 25,700 -384 Descending Chicago Center
Tue 04:38:09 PM 40.7847 -87.0528 258° West 389 448 25,200 -532 Descending Chicago Center
Tue 04:39:11 PM 40.7575 -87.2297 259° West 404 465 24,600 -968 Descending Chicago Center
Tue 04:40:13 PM 40.7328 -87.3806 258° West 415 478 23,200 -1,694 Descending Chicago Center
Tue 04:41:15 PM 40.7092 -87.5333 259° West 422 486 21,100 -2,064 Descending Chicago Center
Tue 04:42:18 PM 40.6844 -87.6869 258° West 426 490 18,900 -2,160 Descending Chicago Center
Tue 04:43:20 PM 40.6592 -87.8372 258° West 421 484 16,600 -2,081 Descending Chicago Center
Tue 04:44:22 PM 40.6361 -87.9811 258° West 404 465 14,600 -2,129 Descending Chicago Center
Tue 04:45:24 PM 40.6094 -88.1444 258° West 379 436 12,200 -1,839 Descending Chicago Center
Tue 04:46:26 PM 40.5897 -88.2700 258° West 350 403 10,800 -1,306 Descending Chicago Center
Tue 04:47:28 PM 40.5717 -88.3728 257° West 292 336 9,500 -1,488 Descending Chicago Center
Tue 04:48:31 PM 40.5553 -88.4669 257° West 266 306 7,700 -1,632 Descending Chicago Center
Tue 04:49:33 PM 40.5397 -88.5578 257° West 260 299 6,100 -968 Descending Chicago Center
Tue 04:50:35 PM 40.5278 -88.6386 259° West 234 269 5,700 -1,258 Descending Chicago Center
Tue 04:51:37 PM 40.5294 -88.7311 271° West 213 245 3,500 -1,548 Descending Chicago Center
Tue 04:52:39 PM 40.5231 -88.8158 264° West 228 262 2,500 -768 Descending Chicago Center
Tue 04:53:42 PM 40.5125 -88.8725 256° West 182 209 1,900 -576 Descending Chicago Center
Tue 04:54:44 PM 40.4864 -88.9239 236° Southwest 168 193 1,300 -581 Descending Chicago Center
Tue 04:56:00 PM 40.4771 -88.9159 246° West  Level Estimated

Login

Don't have an account? Register now (free) for customized features, flight alerts, and more!